sensor_id;sensor_type;location;lat;lon;timestamp;temperature;humidity
24408;DHT22;12542;50.924;4.516;2023-08-06T00:00:24;15.10;99.90
24408;DHT22;12542;50.924;4.516;2023-08-06T00:02:50;15.10;99.90
24408;DHT22;12542;50.924;4.516;2023-08-06T00:05:16;15.10;99.90
24408;DHT22;12542;50.924;4.516;2023-08-06T00:07:50;15.30;99.90
24408;DHT22;12542;50.924;4.516;2023-08-06T00:10:16;15.30;99.90
24408;DHT22;12542;50.924;4.516;2023-08-06T00:12:42;15.40;99.90
24408;DHT22;12542;50.924;4.516;2023-08-06T00:15:09;15.40;99.90
24408;DHT22;12542;50.924;4.516;2023-08-06T00:17:35;15.40;99.90
24408;DHT22;12542;50.924;4.516;2023-08-06T00:20:04;15.40;99.90
24408;DHT22;12542;50.924;4.516;2023-08-06T00:22:36;15.50;99.90
24408;DHT22;12542;50.924;4.516;2023-08-06T00:25:03;15.50;99.90
24408;DHT22;12542;50.924;4.516;2023-08-06T00:27:29;15.50;99.90
24408;DHT22;12542;50.924;4.516;2023-08-06T00:29:55;15.60;99.90
24408;DHT22;12542;50.924;4.516;2023-08-06T00:32:21;15.60;99.90
24408;DHT22;12542;50.924;4.516;2023-08-06T00:34:47;15.60;99.90
24408;DHT22;12542;50.924;4.516;2023-08-06T00:37:16;15.60;99.90
24408;DHT22;12542;50.924;4.516;2023-08-06T00:39:42;15.70;99.90
24408;DHT22;12542;50.924;4.516;2023-08-06T00:42:09;15.70;99.90
24408;DHT22;12542;50.924;4.516;2023-08-06T00:44:35;15.70;99.90
24408;DHT22;12542;50.924;4.516;2023-08-06T00:47:01;15.60;99.90
24408;DHT22;12542;50.924;4.516;2023-08-06T00:49:27;15.60;99.90
24408;DHT22;12542;50.924;4.516;2023-08-06T00:51:53;15.70;99.90
24408;DHT22;12542;50.924;4.516;2023-08-06T00:54:19;15.70;99.90
24408;DHT22;12542;50.924;4.516;2023-08-06T00:56:45;15.70;99.90
24408;DHT22;12542;50.924;4.516;2023-08-06T00:59:12;15.60;99.90
24408;DHT22;12542;50.924;4.516;2023-08-06T01:01:41;15.60;99.90
24408;DHT22;12542;50.924;4.516;2023-08-06T01:04:07;15.70;99.90
24408;DHT22;12542;50.924;4.516;2023-08-06T01:15:25;16.00;99.90
24408;DHT22;12542;50.924;4.516;2023-08-06T01:17:53;16.00;99.90
24408;DHT22;12542;50.924;4.516;2023-08-06T01:20:19;16.00;99.90
24408;DHT22;12542;50.924;4.516;2023-08-06T01:22:45;16.10;99.90
24408;DHT22;12542;50.924;4.516;2023-08-06T01:25:15;16.20;99.90
24408;DHT22;12542;50.924;4.516;2023-08-06T01:27:48;16.20;99.90
24408;DHT22;12542;50.924;4.516;2023-08-06T01:30:33;16.30;99.90
24408;DHT22;12542;50.924;4.516;2023-08-06T01:33:04;16.40;99.90
24408;DHT22;12542;50.924;4.516;2023-08-06T01:38:55;16.50;99.90
24408;DHT22;12542;50.924;4.516;2023-08-06T01:41:22;16.60;99.90
24408;DHT22;12542;50.924;4.516;2023-08-06T01:43:48;16.70;99.90
24408;DHT22;12542;50.924;4.516;2023-08-06T01:46:14;16.60;99.90
24408;DHT22;12542;50.924;4.516;2023-08-06T01:48:39;16.60;99.90
24408;DHT22;12542;50.924;4.516;2023-08-06T01:51:05;16.60;99.90
24408;DHT22;12542;50.924;4.516;2023-08-06T01:53:32;16.60;99.90
24408;DHT22;12542;50.924;4.516;2023-08-06T01:56:00;16.60;99.90
24408;DHT22;12542;50.924;4.516;2023-08-06T01:58:25;16.60;99.90
24408;DHT22;12542;50.924;4.516;2023-08-06T02:00:51;16.60;99.90
24408;DHT22;12542;50.924;4.516;2023-08-06T02:03:17;16.60;99.90
24408;DHT22;12542;50.924;4.516;2023-08-06T02:05:42;16.60;99.90
24408;DHT22;12542;50.924;4.516;2023-08-06T02:08:08;16.70;99.90
24408;DHT22;12542;50.924;4.516;2023-08-06T02:10:34;16.60;99.90
24408;DHT22;12542;50.924;4.516;2023-08-06T02:13:00;16.60;99.90
24408;DHT22;12542;50.924;4.516;2023-08-06T02:15:26;16.70;99.90
24408;DHT22;12542;50.924;4.516;2023-08-06T02:17:52;16.60;99.90
24408;DHT22;12542;50.924;4.516;2023-08-06T02:20:18;16.70;99.90
24408;DHT22;12542;50.924;4.516;2023-08-06T02:22:43;16.70;99.90
24408;DHT22;12542;50.924;4.516;2023-08-06T02:25:09;16.60;99.90
24408;DHT22;12542;50.924;4.516;2023-08-06T02:27:40;16.50;99.90
24408;DHT22;12542;50.924;4.516;2023-08-06T02:30:06;16.50;99.90
24408;DHT22;12542;50.924;4.516;2023-08-06T02:32:32;16.50;99.90
24408;DHT22;12542;50.924;4.516;2023-08-06T02:35:01;16.50;99.90
24408;DHT22;12542;50.924;4.516;2023-08-06T02:37:27;16.50;99.90
24408;DHT22;12542;50.924;4.516;2023-08-06T02:39:53;16.50;99.90
24408;DHT22;12542;50.924;4.516;2023-08-06T02:42:19;16.50;99.90
24408;DHT22;12542;50.924;4.516;2023-08-06T02:44:44;16.50;99.90
24408;DHT22;12542;50.924;4.516;2023-08-06T02:47:10;16.50;99.90
24408;DHT22;12542;50.924;4.516;2023-08-06T02:49:36;16.50;99.90
24408;DHT22;12542;50.924;4.516;2023-08-06T02:52:04;16.50;99.90
24408;DHT22;12542;50.924;4.516;2023-08-06T02:54:30;16.50;99.90
24408;DHT22;12542;50.924;4.516;2023-08-06T02:56:55;16.60;99.90
24408;DHT22;12542;50.924;4.516;2023-08-06T02:59:21;16.50;99.90
24408;DHT22;12542;50.924;4.516;2023-08-06T03:01:47;16.50;99.90
24408;DHT22;12542;50.924;4.516;2023-08-06T03:04:12;16.40;99.90
24408;DHT22;12542;50.924;4.516;2023-08-06T03:06:38;16.40;99.90
24408;DHT22;12542;50.924;4.516;2023-08-06T03:09:04;16.40;99.90
24408;DHT22;12542;50.924;4.516;2023-08-06T03:11:29;16.40;99.90
24408;DHT22;12542;50.924;4.516;2023-08-06T03:13:55;16.40;99.90
24408;DHT22;12542;50.924;4.516;2023-08-06T03:16:20;16.40;99.90
24408;DHT22;12542;50.924;4.516;2023-08-06T03:18:46;16.40;99.90
24408;DHT22;12542;50.924;4.516;2023-08-06T03:21:12;16.40;99.90
24408;DHT22;12542;50.924;4.516;2023-08-06T03:23:38;16.40;99.90
24408;DHT22;12542;50.924;4.516;2023-08-06T03:26:04;16.30;99.90
24408;DHT22;12542;50.924;4.516;2023-08-06T03:28:29;16.40;99.90
24408;DHT22;12542;50.924;4.516;2023-08-06T03:31:01;16.40;99.90
24408;DHT22;12542;50.924;4.516;2023-08-06T03:33:27;16.40;99.90
24408;DHT22;12542;50.924;4.516;2023-08-06T03:35:53;16.50;99.90
24408;DHT22;12542;50.924;4.516;2023-08-06T03:38:18;16.50;99.90
24408;DHT22;12542;50.924;4.516;2023-08-06T03:40:45;16.40;99.90
24408;DHT22;12542;50.924;4.516;2023-08-06T03:43:11;16.40;99.90
24408;DHT22;12542;50.924;4.516;2023-08-06T03:45:37;16.40;99.90
24408;DHT22;12542;50.924;4.516;2023-08-06T03:48:04;16.50;99.90
24408;DHT22;12542;50.924;4.516;2023-08-06T03:50:30;16.50;99.90
24408;DHT22;12542;50.924;4.516;2023-08-06T03:52:56;16.40;99.90
24408;DHT22;12542;50.924;4.516;2023-08-06T03:55:21;16.40;99.90
24408;DHT22;12542;50.924;4.516;2023-08-06T03:57:47;16.40;99.90
24408;DHT22;12542;50.924;4.516;2023-08-06T04:00:13;16.30;99.90
24408;DHT22;12542;50.924;4.516;2023-08-06T04:02:39;16.30;99.90
24408;DHT22;12542;50.924;4.516;2023-08-06T04:05:05;16.40;99.90
24408;DHT22;12542;50.924;4.516;2023-08-06T04:07:30;16.40;99.90
24408;DHT22;12542;50.924;4.516;2023-08-06T04:10:02;16.50;99.90
24408;DHT22;12542;50.924;4.516;2023-08-06T04:12:28;16.30;99.90
24408;DHT22;12542;50.924;4.516;2023-08-06T04:14:55;16.30;99.90
24408;DHT22;12542;50.924;4.516;2023-08-06T04:17:21;16.30;99.90
24408;DHT22;12542;50.924;4.516;2023-08-06T04:19:51;16.30;99.90
24408;DHT22;12542;50.924;4.516;2023-08-06T04:22:18;16.10;99.90
24408;DHT22;12542;50.924;4.516;2023-08-06T04:24:44;16.00;99.90
24408;DHT22;12542;50.924;4.516;2023-08-06T04:27:10;16.00;99.90
24408;DHT22;12542;50.924;4.516;2023-08-06T04:29:37;15.90;99.90
24408;DHT22;12542;50.924;4.516;2023-08-06T04:32:07;15.90;99.90
24408;DHT22;12542;50.924;4.516;2023-08-06T04:34:35;15.80;99.90
24408;DHT22;12542;50.924;4.516;2023-08-06T04:37:02;15.80;99.90
24408;DHT22;12542;50.924;4.516;2023-08-06T04:39:28;15.70;99.90
24408;DHT22;12542;50.924;4.516;2023-08-06T04:41:54;15.60;99.90
24408;DHT22;12542;50.924;4.516;2023-08-06T04:44:20;15.60;99.90
24408;DHT22;12542;50.924;4.516;2023-08-06T04:46:46;15.50;99.90
24408;DHT22;12542;50.924;4.516;2023-08-06T04:49:12;15.30;99.90
24408;DHT22;12542;50.924;4.516;2023-08-06T04:51:38;15.00;99.90
24408;DHT22;12542;50.924;4.516;2023-08-06T04:54:04;14.90;99.90
24408;DHT22;12542;50.924;4.516;2023-08-06T04:56:29;14.90;99.90
24408;DHT22;12542;50.924;4.516;2023-08-06T04:58:57;14.80;99.90
24408;DHT22;12542;50.924;4.516;2023-08-06T05:01:23;14.60;99.90
24408;DHT22;12542;50.924;4.516;2023-08-06T05:03:49;14.60;99.90
24408;DHT22;12542;50.924;4.516;2023-08-06T05:06:14;14.60;99.90
24408;DHT22;12542;50.924;4.516;2023-08-06T05:08:40;14.70;99.90
24408;DHT22;12542;50.924;4.516;2023-08-06T05:11:05;14.80;99.90
24408;DHT22;12542;50.924;4.516;2023-08-06T05:13:31;14.70;99.90
24408;DHT22;12542;50.924;4.516;2023-08-06T05:15:57;14.60;99.90
24408;DHT22;12542;50.924;4.516;2023-08-06T05:18:23;14.70;99.90
24408;DHT22;12542;50.924;4.516;2023-08-06T05:20:49;14.70;99.90
24408;DHT22;12542;50.924;4.516;2023-08-06T05:23:15;14.80;99.90
24408;DHT22;12542;50.924;4.516;2023-08-06T05:25:42;14.80;99.90
24408;DHT22;12542;50.924;4.516;2023-08-06T05:28:07;14.80;99.90
24408;DHT22;12542;50.924;4.516;2023-08-06T05:30:33;14.80;99.90
24408;DHT22;12542;50.924;4.516;2023-08-06T05:32:59;14.80;99.90
24408;DHT22;12542;50.924;4.516;2023-08-06T05:35:25;14.80;99.90
24408;DHT22;12542;50.924;4.516;2023-08-06T05:37:50;14.90;99.90
24408;DHT22;12542;50.924;4.516;2023-08-06T05:40:16;14.80;99.90
24408;DHT22;12542;50.924;4.516;2023-08-06T05:42:42;14.80;99.90
24408;DHT22;12542;50.924;4.516;2023-08-06T05:45:08;14.80;99.90
24408;DHT22;12542;50.924;4.516;2023-08-06T05:47:34;14.80;99.90
24408;DHT22;12542;50.924;4.516;2023-08-06T05:49:59;14.80;99.90
24408;DHT22;12542;50.924;4.516;2023-08-06T05:52:25;14.90;99.90
24408;DHT22;12542;50.924;4.516;2023-08-06T05:54:51;14.90;99.90
24408;DHT22;12542;50.924;4.516;2023-08-06T05:57:17;14.80;99.90
24408;DHT22;12542;50.924;4.516;2023-08-06T05:59:43;14.90;99.90
24408;DHT22;12542;50.924;4.516;2023-08-06T06:02:09;15.00;99.90
24408;DHT22;12542;50.924;4.516;2023-08-06T06:04:34;15.10;99.90
24408;DHT22;12542;50.924;4.516;2023-08-06T06:07:00;15.10;99.90
24408;DHT22;12542;50.924;4.516;2023-08-06T06:09:26;15.10;99.90
24408;DHT22;12542;50.924;4.516;2023-08-06T06:11:52;15.10;99.90
24408;DHT22;12542;50.924;4.516;2023-08-06T06:14:18;15.10;99.90
24408;DHT22;12542;50.924;4.516;2023-08-06T06:16:44;15.10;99.90
24408;DHT22;12542;50.924;4.516;2023-08-06T06:19:10;15.10;99.90
24408;DHT22;12542;50.924;4.516;2023-08-06T06:21:36;15.10;99.90
24408;DHT22;12542;50.924;4.516;2023-08-06T06:24:03;15.20;99.90
24408;DHT22;12542;50.924;4.516;2023-08-06T06:26:29;15.20;99.90
24408;DHT22;12542;50.924;4.516;2023-08-06T06:28:55;15.20;99.90
24408;DHT22;12542;50.924;4.516;2023-08-06T06:31:21;15.20;99.90
24408;DHT22;12542;50.924;4.516;2023-08-06T06:33:47;15.30;99.90
24408;DHT22;12542;50.924;4.516;2023-08-06T06:36:12;15.40;99.90
24408;DHT22;12542;50.924;4.516;2023-08-06T06:38:38;15.40;99.90
24408;DHT22;12542;50.924;4.516;2023-08-06T06:41:04;15.50;99.90
24408;DHT22;12542;50.924;4.516;2023-08-06T06:43:29;15.60;99.90
24408;DHT22;12542;50.924;4.516;2023-08-06T06:45:59;15.50;99.90
24408;DHT22;12542;50.924;4.516;2023-08-06T06:48:31;15.60;99.90
24408;DHT22;12542;50.924;4.516;2023-08-06T06:50:56;15.60;99.90
24408;DHT22;12542;50.924;4.516;2023-08-06T06:53:22;15.70;99.90
24408;DHT22;12542;50.924;4.516;2023-08-06T06:56:04;15.70;99.90
24408;DHT22;12542;50.924;4.516;2023-08-06T06:58:33;15.70;99.90
24408;DHT22;12542;50.924;4.516;2023-08-06T07:00:59;15.70;99.90
24408;DHT22;12542;50.924;4.516;2023-08-06T07:03:24;15.80;99.90
24408;DHT22;12542;50.924;4.516;2023-08-06T07:05:50;15.80;99.90
24408;DHT22;12542;50.924;4.516;2023-08-06T07:08:16;15.80;99.90
24408;DHT22;12542;50.924;4.516;2023-08-06T07:10:42;16.00;99.90
24408;DHT22;12542;50.924;4.516;2023-08-06T07:13:09;16.00;99.90
24408;DHT22;12542;50.924;4.516;2023-08-06T07:15:34;15.90;99.90
24408;DHT22;12542;50.924;4.516;2023-08-06T07:18:01;15.80;99.90
24408;DHT22;12542;50.924;4.516;2023-08-06T07:20:26;15.80;99.90
24408;DHT22;12542;50.924;4.516;2023-08-06T07:22:57;15.90;99.90
24408;DHT22;12542;50.924;4.516;2023-08-06T07:25:22;15.90;99.90
24408;DHT22;12542;50.924;4.516;2023-08-06T07:27:48;16.00;99.90
24408;DHT22;12542;50.924;4.516;2023-08-06T07:30:16;16.00;99.90
24408;DHT22;12542;50.924;4.516;2023-08-06T07:32:42;16.00;99.90
24408;DHT22;12542;50.924;4.516;2023-08-06T07:35:08;16.00;99.90
24408;DHT22;12542;50.924;4.516;2023-08-06T07:37:38;16.00;99.90
24408;DHT22;12542;50.924;4.516;2023-08-06T07:40:04;16.00;99.90
24408;DHT22;12542;50.924;4.516;2023-08-06T07:42:30;16.00;99.90
24408;DHT22;12542;50.924;4.516;2023-08-06T07:44:58;15.70;99.90
24408;DHT22;12542;50.924;4.516;2023-08-06T07:47:24;15.60;99.90
24408;DHT22;12542;50.924;4.516;2023-08-06T07:49:49;15.60;99.90
24408;DHT22;12542;50.924;4.516;2023-08-06T07:52:15;15.60;99.90
24408;DHT22;12542;50.924;4.516;2023-08-06T07:54:41;15.70;99.90
24408;DHT22;12542;50.924;4.516;2023-08-06T07:57:07;16.00;99.90
24408;DHT22;12542;50.924;4.516;2023-08-06T07:59:33;16.10;99.90
24408;DHT22;12542;50.924;4.516;2023-08-06T08:01:59;16.10;99.90
24408;DHT22;12542;50.924;4.516;2023-08-06T08:04:25;16.30;99.90
24408;DHT22;12542;50.924;4.516;2023-08-06T08:06:50;16.40;99.90
24408;DHT22;12542;50.924;4.516;2023-08-06T08:09:16;16.50;99.90
24408;DHT22;12542;50.924;4.516;2023-08-06T08:11:42;16.70;99.90
24408;DHT22;12542;50.924;4.516;2023-08-06T08:14:08;16.60;99.90
24408;DHT22;12542;50.924;4.516;2023-08-06T08:16:33;16.60;99.90
24408;DHT22;12542;50.924;4.516;2023-08-06T08:18:59;16.60;99.90
24408;DHT22;12542;50.924;4.516;2023-08-06T08:21:28;16.50;99.90
24408;DHT22;12542;50.924;4.516;2023-08-06T08:23:54;16.60;99.90
24408;DHT22;12542;50.924;4.516;2023-08-06T08:26:19;16.70;99.90
24408;DHT22;12542;50.924;4.516;2023-08-06T08:28:45;16.60;99.90
24408;DHT22;12542;50.924;4.516;2023-08-06T08:31:11;16.60;99.90
24408;DHT22;12542;50.924;4.516;2023-08-06T08:33:37;16.50;99.90
24408;DHT22;12542;50.924;4.516;2023-08-06T08:36:03;16.40;99.90
24408;DHT22;12542;50.924;4.516;2023-08-06T08:38:29;16.30;99.90
24408;DHT22;12542;50.924;4.516;2023-08-06T08:40:55;16.50;99.90
24408;DHT22;12542;50.924;4.516;2023-08-06T08:43:23;16.50;99.90
24408;DHT22;12542;50.924;4.516;2023-08-06T08:45:51;16.40;99.90
24408;DHT22;12542;50.924;4.516;2023-08-06T08:48:18;16.50;99.90
24408;DHT22;12542;50.924;4.516;2023-08-06T08:50:47;16.50;99.90
24408;DHT22;12542;50.924;4.516;2023-08-06T08:53:14;16.60;99.90
24408;DHT22;12542;50.924;4.516;2023-08-06T08:55:46;16.60;99.90
24408;DHT22;12542;50.924;4.516;2023-08-06T08:58:13;16.80;99.90
24408;DHT22;12542;50.924;4.516;2023-08-06T09:00:41;16.90;99.90
24408;DHT22;12542;50.924;4.516;2023-08-06T09:03:07;17.00;99.90
24408;DHT22;12542;50.924;4.516;2023-08-06T09:05:34;17.00;99.90
24408;DHT22;12542;50.924;4.516;2023-08-06T09:08:04;16.90;99.90
24408;DHT22;12542;50.924;4.516;2023-08-06T09:10:30;16.90;99.90
24408;DHT22;12542;50.924;4.516;2023-08-06T09:12:57;16.70;99.90
24408;DHT22;12542;50.924;4.516;2023-08-06T09:15:26;16.60;99.90
24408;DHT22;12542;50.924;4.516;2023-08-06T09:17:53;16.60;99.90
24408;DHT22;12542;50.924;4.516;2023-08-06T09:20:20;16.50;99.90
24408;DHT22;12542;50.924;4.516;2023-08-06T09:22:45;16.40;99.90
24408;DHT22;12542;50.924;4.516;2023-08-06T09:25:24;16.20;99.90
24408;DHT22;12542;50.924;4.516;2023-08-06T09:27:50;16.20;99.90
24408;DHT22;12542;50.924;4.516;2023-08-06T09:30:37;16.10;99.90
24408;DHT22;12542;50.924;4.516;2023-08-06T09:33:07;15.90;99.90
24408;DHT22;12542;50.924;4.516;2023-08-06T09:35:35;15.90;99.90
24408;DHT22;12542;50.924;4.516;2023-08-06T09:38:08;15.80;99.90
24408;DHT22;12542;50.924;4.516;2023-08-06T09:40:37;15.90;99.90
24408;DHT22;12542;50.924;4.516;2023-08-06T09:43:03;16.10;99.90
24408;DHT22;12542;50.924;4.516;2023-08-06T09:45:32;16.00;99.90
24408;DHT22;12542;50.924;4.516;2023-08-06T09:48:03;16.00;99.90
24408;DHT22;12542;50.924;4.516;2023-08-06T09:50:31;15.80;99.90
24408;DHT22;12542;50.924;4.516;2023-08-06T09:52:58;15.90;99.90
24408;DHT22;12542;50.924;4.516;2023-08-06T09:55:26;15.80;99.90
24408;DHT22;12542;50.924;4.516;2023-08-06T09:57:52;15.80;99.90
24408;DHT22;12542;50.924;4.516;2023-08-06T10:00:19;15.70;99.90
24408;DHT22;12542;50.924;4.516;2023-08-06T10:02:47;15.60;99.90
24408;DHT22;12542;50.924;4.516;2023-08-06T10:05:15;15.50;99.90
24408;DHT22;12542;50.924;4.516;2023-08-06T10:07:43;15.40;99.90
24408;DHT22;12542;50.924;4.516;2023-08-06T10:10:09;15.60;99.90
24408;DHT22;12542;50.924;4.516;2023-08-06T10:12:40;15.60;99.90
24408;DHT22;12542;50.924;4.516;2023-08-06T10:15:14;15.60;99.90
24408;DHT22;12542;50.924;4.516;2023-08-06T10:17:42;15.60;99.90
24408;DHT22;12542;50.924;4.516;2023-08-06T10:20:09;15.70;99.90
24408;DHT22;12542;50.924;4.516;2023-08-06T10:22:35;15.70;99.90
24408;DHT22;12542;50.924;4.516;2023-08-06T10:25:02;15.70;99.90
24408;DHT22;12542;50.924;4.516;2023-08-06T10:32:53;15.70;99.90
24408;DHT22;12542;50.924;4.516;2023-08-06T10:35:50;15.50;99.90
24408;DHT22;12542;50.924;4.516;2023-08-06T10:38:17;15.40;99.90
24408;DHT22;12542;50.924;4.516;2023-08-06T10:45:51;15.50;99.90
24408;DHT22;12542;50.924;4.516;2023-08-06T10:48:29;15.50;99.90
24408;DHT22;12542;50.924;4.516;2023-08-06T10:50:56;15.60;99.90
24408;DHT22;12542;50.924;4.516;2023-08-06T10:53:22;15.70;99.90
24408;DHT22;12542;50.924;4.516;2023-08-06T10:55:48;15.80;99.90
24408;DHT22;12542;50.924;4.516;2023-08-06T10:58:15;15.80;99.90
24408;DHT22;12542;50.924;4.516;2023-08-06T11:00:42;16.00;99.90
24408;DHT22;12542;50.924;4.516;2023-08-06T11:03:08;16.10;99.90
24408;DHT22;12542;50.924;4.516;2023-08-06T11:05:35;15.90;99.90
24408;DHT22;12542;50.924;4.516;2023-08-06T11:08:01;15.80;99.90
24408;DHT22;12542;50.924;4.516;2023-08-06T11:10:26;15.70;99.90
24408;DHT22;12542;50.924;4.516;2023-08-06T11:12:52;15.70;99.90
24408;DHT22;12542;50.924;4.516;2023-08-06T11:15:20;15.80;99.90
24408;DHT22;12542;50.924;4.516;2023-08-06T11:17:46;16.00;99.90
24408;DHT22;12542;50.924;4.516;2023-08-06T11:20:13;15.90;99.90
24408;DHT22;12542;50.924;4.516;2023-08-06T11:22:38;16.10;99.90
24408;DHT22;12542;50.924;4.516;2023-08-06T11:25:05;16.10;99.90
24408;DHT22;12542;50.924;4.516;2023-08-06T11:27:32;16.20;99.90
24408;DHT22;12542;50.924;4.516;2023-08-06T11:29:57;16.10;99.90
24408;DHT22;12542;50.924;4.516;2023-08-06T11:32:23;16.10;99.90
24408;DHT22;12542;50.924;4.516;2023-08-06T11:34:50;16.40;99.90
24408;DHT22;12542;50.924;4.516;2023-08-06T11:37:15;16.50;99.90
24408;DHT22;12542;50.924;4.516;2023-08-06T11:39:46;16.50;99.90
24408;DHT22;12542;50.924;4.516;2023-08-06T11:42:14;16.40;99.90
24408;DHT22;12542;50.924;4.516;2023-08-06T11:44:41;16.20;99.90
24408;DHT22;12542;50.924;4.516;2023-08-06T11:47:14;15.90;99.90
24408;DHT22;12542;50.924;4.516;2023-08-06T11:49:46;15.90;99.90
24408;DHT22;12542;50.924;4.516;2023-08-06T11:54:42;15.80;99.90
24408;DHT22;12542;50.924;4.516;2023-08-06T11:57:08;15.70;99.90
24408;DHT22;12542;50.924;4.516;2023-08-06T11:59:34;15.80;99.90
24408;DHT22;12542;50.924;4.516;2023-08-06T12:02:02;15.90;99.90
24408;DHT22;12542;50.924;4.516;2023-08-06T12:04:28;16.00;99.90
24408;DHT22;12542;50.924;4.516;2023-08-06T12:06:54;16.30;99.90
24408;DHT22;12542;50.924;4.516;2023-08-06T12:09:20;16.30;99.90
24408;DHT22;12542;50.924;4.516;2023-08-06T12:11:46;16.40;99.90
24408;DHT22;12542;50.924;4.516;2023-08-06T12:14:11;16.50;99.90
24408;DHT22;12542;50.924;4.516;2023-08-06T12:16:37;16.60;99.90
24408;DHT22;12542;50.924;4.516;2023-08-06T12:19:03;16.70;99.90
24408;DHT22;12542;50.924;4.516;2023-08-06T12:21:29;16.80;99.90
24408;DHT22;12542;50.924;4.516;2023-08-06T12:23:55;16.90;99.90
24408;DHT22;12542;50.924;4.516;2023-08-06T12:26:21;16.80;99.90
24408;DHT22;12542;50.924;4.516;2023-08-06T12:28:46;16.80;99.90
24408;DHT22;12542;50.924;4.516;2023-08-06T12:31:12;16.80;99.90
24408;DHT22;12542;50.924;4.516;2023-08-06T12:33:37;16.50;99.90
24408;DHT22;12542;50.924;4.516;2023-08-06T12:36:03;16.20;99.90
24408;DHT22;12542;50.924;4.516;2023-08-06T12:38:29;16.20;99.90
24408;DHT22;12542;50.924;4.516;2023-08-06T12:40:59;16.40;99.90
24408;DHT22;12542;50.924;4.516;2023-08-06T12:43:24;16.30;99.90
24408;DHT22;12542;50.924;4.516;2023-08-06T12:45:50;16.40;99.90
24408;DHT22;12542;50.924;4.516;2023-08-06T12:48:15;16.40;99.90
24408;DHT22;12542;50.924;4.516;2023-08-06T12:50:41;16.40;99.90
24408;DHT22;12542;50.924;4.516;2023-08-06T12:53:09;16.20;99.90
24408;DHT22;12542;50.924;4.516;2023-08-06T12:55:35;16.10;99.90
24408;DHT22;12542;50.924;4.516;2023-08-06T12:58:00;15.90;99.90
24408;DHT22;12542;50.924;4.516;2023-08-06T13:00:26;15.80;99.90
24408;DHT22;12542;50.924;4.516;2023-08-06T13:02:52;15.80;99.90
24408;DHT22;12542;50.924;4.516;2023-08-06T13:05:18;15.80;99.90
24408;DHT22;12542;50.924;4.516;2023-08-06T13:07:43;15.70;99.90
24408;DHT22;12542;50.924;4.516;2023-08-06T13:10:09;15.70;99.90
24408;DHT22;12542;50.924;4.516;2023-08-06T13:12:35;15.50;99.90
24408;DHT22;12542;50.924;4.516;2023-08-06T13:15:03;15.40;99.90
24408;DHT22;12542;50.924;4.516;2023-08-06T13:17:29;15.50;99.90
24408;DHT22;12542;50.924;4.516;2023-08-06T13:19:55;15.50;99.90
24408;DHT22;12542;50.924;4.516;2023-08-06T13:22:20;15.60;99.90
24408;DHT22;12542;50.924;4.516;2023-08-06T13:24:46;15.70;99.90
24408;DHT22;12542;50.924;4.516;2023-08-06T13:27:12;15.80;99.90
24408;DHT22;12542;50.924;4.516;2023-08-06T13:29:37;15.80;99.90
24408;DHT22;12542;50.924;4.516;2023-08-06T13:32:03;16.00;99.90
24408;DHT22;12542;50.924;4.516;2023-08-06T13:34:29;16.00;99.90
24408;DHT22;12542;50.924;4.516;2023-08-06T13:36:54;15.90;99.90
24408;DHT22;12542;50.924;4.516;2023-08-06T13:39:20;15.90;99.90
24408;DHT22;12542;50.924;4.516;2023-08-06T13:41:46;15.80;99.90
24408;DHT22;12542;50.924;4.516;2023-08-06T13:44:11;15.60;99.90
24408;DHT22;12542;50.924;4.516;2023-08-06T13:46:39;15.40;99.90
24408;DHT22;12542;50.924;4.516;2023-08-06T13:49:05;15.30;99.90
24408;DHT22;12542;50.924;4.516;2023-08-06T13:51:30;15.20;99.90
24408;DHT22;12542;50.924;4.516;2023-08-06T13:53:56;15.10;99.90
24408;DHT22;12542;50.924;4.516;2023-08-06T13:56:23;15.10;99.90
24408;DHT22;12542;50.924;4.516;2023-08-06T13:58:49;15.00;99.90
24408;DHT22;12542;50.924;4.516;2023-08-06T14:01:17;15.00;99.90
24408;DHT22;12542;50.924;4.516;2023-08-06T14:03:44;15.00;99.90
24408;DHT22;12542;50.924;4.516;2023-08-06T14:06:12;15.00;99.90
24408;DHT22;12542;50.924;4.516;2023-08-06T14:08:38;14.90;99.90
24408;DHT22;12542;50.924;4.516;2023-08-06T14:11:04;14.90;99.90
24408;DHT22;12542;50.924;4.516;2023-08-06T14:13:31;15.00;99.90
24408;DHT22;12542;50.924;4.516;2023-08-06T14:15:57;15.00;99.90
24408;DHT22;12542;50.924;4.516;2023-08-06T14:18:22;15.00;99.90
24408;DHT22;12542;50.924;4.516;2023-08-06T14:20:48;15.00;99.90
24408;DHT22;12542;50.924;4.516;2023-08-06T14:23:14;15.00;99.90
24408;DHT22;12542;50.924;4.516;2023-08-06T14:25:39;15.10;99.90
24408;DHT22;12542;50.924;4.516;2023-08-06T14:28:05;15.10;99.90
24408;DHT22;12542;50.924;4.516;2023-08-06T14:30:32;15.20;99.90
24408;DHT22;12542;50.924;4.516;2023-08-06T14:32:58;15.20;99.90
24408;DHT22;12542;50.924;4.516;2023-08-06T14:35:26;15.20;99.90
24408;DHT22;12542;50.924;4.516;2023-08-06T14:37:51;15.20;99.90
24408;DHT22;12542;50.924;4.516;2023-08-06T14:40:17;15.30;99.90
24408;DHT22;12542;50.924;4.516;2023-08-06T14:42:43;15.50;99.90
24408;DHT22;12542;50.924;4.516;2023-08-06T14:45:09;15.50;99.90
24408;DHT22;12542;50.924;4.516;2023-08-06T14:47:34;15.50;99.90
24408;DHT22;12542;50.924;4.516;2023-08-06T14:50:00;15.50;99.90
24408;DHT22;12542;50.924;4.516;2023-08-06T14:52:26;15.50;99.90
24408;DHT22;12542;50.924;4.516;2023-08-06T14:54:51;15.40;99.90
24408;DHT22;12542;50.924;4.516;2023-08-06T14:57:21;15.60;99.90
24408;DHT22;12542;50.924;4.516;2023-08-06T14:59:47;15.50;99.90
24408;DHT22;12542;50.924;4.516;2023-08-06T15:02:13;15.40;99.90
24408;DHT22;12542;50.924;4.516;2023-08-06T15:04:38;15.50;99.90
24408;DHT22;12542;50.924;4.516;2023-08-06T15:07:04;15.60;99.90
24408;DHT22;12542;50.924;4.516;2023-08-06T15:09:30;15.70;99.90
24408;DHT22;12542;50.924;4.516;2023-08-06T15:11:55;15.80;99.90
24408;DHT22;12542;50.924;4.516;2023-08-06T15:14:21;15.80;99.90
24408;DHT22;12542;50.924;4.516;2023-08-06T15:16:47;15.60;99.90
24408;DHT22;12542;50.924;4.516;2023-08-06T15:19:13;15.50;99.90
24408;DHT22;12542;50.924;4.516;2023-08-06T15:21:39;15.70;99.90
24408;DHT22;12542;50.924;4.516;2023-08-06T15:24:04;15.70;99.90
24408;DHT22;12542;50.924;4.516;2023-08-06T15:26:30;15.90;99.90
24408;DHT22;12542;50.924;4.516;2023-08-06T15:28:56;16.00;99.90
24408;DHT22;12542;50.924;4.516;2023-08-06T15:31:22;16.00;99.90
24408;DHT22;12542;50.924;4.516;2023-08-06T15:33:48;15.90;99.90
24408;DHT22;12542;50.924;4.516;2023-08-06T15:36:14;15.90;99.90
24408;DHT22;12542;50.924;4.516;2023-08-06T15:38:40;16.00;99.90
24408;DHT22;12542;50.924;4.516;2023-08-06T15:41:08;15.90;99.90
24408;DHT22;12542;50.924;4.516;2023-08-06T15:43:34;16.00;99.90
24408;DHT22;12542;50.924;4.516;2023-08-06T15:46:00;15.90;99.90
24408;DHT22;12542;50.924;4.516;2023-08-06T15:48:25;16.10;99.90
24408;DHT22;12542;50.924;4.516;2023-08-06T15:50:51;16.10;99.90